Time;durP1;ratioP1;P1;durP2;ratioP2;P2;SDS_P1;SDS_P2;PMS_P1;PMS_P2;Temp;Humidity;BMP_temperature;BMP_pressure;BME280_temperature;BME280_humidity;BME280_pressure;Samples;Min_cycle;Max_cycle;Signal;HPM_P1;HPM_P2
2023/09/27 00:01:37;;;;;;;0.10;0.10;;;;;;;13.99;80.92;100824.19;7357981;19;20007;-60
2023/09/27 00:04:03;;;;;;;0.10;0.10;;;;;;;13.94;81.33;100812.97;7368461;19;20595;-60
2023/09/27 00:06:28;;;;;;;0.10;0.10;;;;;;;13.94;81.31;100810.34;7364489;19;20115;-60
2023/09/27 00:08:54;;;;;;;0.10;0.10;;;;;;;13.98;81.62;100816.34;7369030;19;20010;-61
2023/09/27 00:11:19;;;;;;;0.10;0.10;;;;;;;13.98;81.82;100816.34;7365261;19;20015;-60
2023/09/27 00:13:44;;;;;;;0.10;0.10;;;;;;;13.97;81.61;100807.59;7366127;19;20022;-61
2023/09/27 00:16:10;;;;;;;0.10;0.10;;;;;;;13.98;81.22;100805.84;7349086;19;20398;-61
2023/09/27 00:18:35;;;;;;;0.10;0.10;;;;;;;13.97;81.27;100804.97;7361394;19;20003;-60
2023/09/27 00:21:00;;;;;;;0.10;0.10;;;;;;;13.97;81.34;100809.38;7366587;19;20019;-60
2023/09/27 00:23:26;;;;;;;0.10;0.10;;;;;;;13.98;80.94;100817.19;7368168;19;20090;-60
2023/09/27 00:25:51;;;;;;;0.10;0.10;;;;;;;13.96;80.86;100818.16;7365060;19;20434;-61
2023/09/27 00:28:17;;;;;;;0.10;0.10;;;;;;;13.96;81.06;100819.03;7367492;19;20107;-61
2023/09/27 00:30:42;;;;;;;0.10;0.10;;;;;;;13.96;81.12;100812.91;7366485;19;21054;-60
2023/09/27 00:33:08;;;;;;;0.10;0.10;;;;;;;13.96;81.07;100818.16;7362347;19;20018;-61
2023/09/27 00:35:33;;;;;;;0.10;0.10;;;;;;;13.83;81.22;100794.09;7368195;19;20015;-61
2023/09/27 00:37:59;;;;;;;0.00;0.00;;;;;;;13.94;81.53;100820.84;7366751;19;20024;-61
2023/09/27 00:40:25;;;;;;;0.10;0.10;;;;;;;13.85;81.12;100815.91;7362884;19;20015;-61
2023/09/27 00:42:50;;;;;;;0.10;0.10;;;;;;;13.91;81.61;100809.59;7364303;19;20616;-60
2023/09/27 00:45:17;;;;;;;0.10;0.10;;;;;;;13.95;81.56;100812.06;7366408;19;20007;-60
2023/09/27 00:47:42;;;;;;;0.10;0.10;;;;;;;13.95;81.58;100811.22;7366046;19;20018;-61
2023/09/27 00:50:11;;;;;;;0.10;0.10;;;;;;;13.94;81.56;100805.09;7361400;19;20025;-61
2023/09/27 00:52:39;;;;;;;0.10;0.10;;;;;;;13.95;81.42;100806.81;7372715;19;20010;-61
2023/09/27 00:55:05;;;;;;;0.10;0.10;;;;;;;13.95;81.92;100803.34;7362056;19;20022;-61
2023/09/27 00:57:30;;;;;;;0.05;0.05;;;;;;;13.95;81.61;100800.72;7362230;19;20014;-60
2023/09/27 00:59:56;;;;;;;0.10;0.10;;;;;;;13.94;82.05;100788.50;7369205;19;20031;-61
2023/09/27 01:02:22;;;;;;;0.10;0.10;;;;;;;13.30;81.97;100680.50;7362097;19;20010;-61
2023/09/27 01:04:48;;;;;;;0.10;0.10;;;;;;;13.93;81.66;100786.75;7363288;19;20006;-61
2023/09/27 01:07:13;;;;;;;0.10;0.10;;;;;;;13.93;81.58;100786.75;7362004;19;20015;-61
2023/09/27 01:09:39;;;;;;;0.10;0.10;;;;;;;13.88;81.78;100779.03;7360918;19;20010;-61
2023/09/27 01:12:04;;;;;;;0.10;0.10;;;;;;;13.91;81.91;100778.09;7363447;19;20366;-60
2023/09/27 01:14:30;;;;;;;0.10;0.10;;;;;;;13.89;81.63;100775.53;7364246;19;20002;-61
2023/09/27 01:16:56;;;;;;;0.10;0.10;;;;;;;13.87;81.59;100771.22;7362357;19;20052;-61
2023/09/27 01:19:21;;;;;;;0.10;0.10;;;;;;;13.87;81.34;100763.34;7363486;19;20814;-61
2023/09/27 01:21:46;;;;;;;0.10;0.10;;;;;;;13.85;81.59;100768.66;7366293;19;20018;-61
2023/09/27 01:24:12;;;;;;;0.10;0.10;;;;;;;13.83;81.68;100759.13;7363710;19;20387;-61
2023/09/27 01:26:39;;;;;;;0.10;0.10;;;;;;;13.83;81.50;100752.09;7360950;19;20498;-61
2023/09/27 01:29:04;;;;;;;0.10;0.10;;;;;;;13.82;81.59;100746.91;7365049;19;20566;-61
2023/09/27 01:31:31;;;;;;;0.10;0.10;;;;;;;13.77;81.33;100734.81;7366588;19;20011;-61
2023/09/27 01:33:56;;;;;;;0.10;0.10;;;;;;;13.81;81.59;100747.81;7366428;19;20015;-61
2023/09/27 01:36:22;;;;;;;0.10;0.10;;;;;;;13.74;81.69;100741.94;7368459;19;20014;-61
2023/09/27 01:38:48;;;;;;;0.10;0.10;;;;;;;13.76;81.72;100748.84;7361810;19;20836;-60
2023/09/27 01:41:13;;;;;;;0.10;0.10;;;;;;;13.77;81.09;100747.06;7366324;19;20442;-61
2023/09/27 01:43:39;;;;;;;0.10;0.10;;;;;;;13.67;81.29;100729.94;7371472;19;20467;-61
2023/09/27 01:46:04;;;;;;;0.10;0.10;;;;;;;13.75;81.23;100747.13;7367214;19;20010;-61
2023/09/27 01:48:30;;;;;;;0.10;0.10;;;;;;;13.72;81.47;100744.59;7361026;19;20006;-61
2023/09/27 01:50:55;;;;;;;0.10;0.10;;;;;;;13.72;81.20;100747.22;7364752;19;20015;-61
2023/09/27 01:53:21;;;;;;;0.10;0.10;;;;;;;13.43;81.28;100694.91;7365665;19;19999;-61
2023/09/27 01:55:47;;;;;;;0.10;0.10;;;;;;;13.69;81.44;100736.84;7364298;19;20014;-61
2023/09/27 01:58:13;;;;;;;0.10;0.10;;;;;;;13.69;81.26;100742.09;7359502;19;20018;-61
2023/09/27 02:00:38;;;;;;;0.10;0.10;;;;;;;13.67;81.29;100728.16;7363414;19;20011;-61
2023/09/27 02:03:03;;;;;;;0.20;0.20;;;;;;;13.64;81.67;100717.78;7363040;19;20011;-60
2023/09/27 02:05:30;;;;;;;0.10;0.10;;;;;;;13.68;81.80;100724.63;7360876;19;20015;-60
2023/09/27 02:07:56;;;;;;;0.10;0.10;;;;;;;13.69;81.47;100721.09;7359176;19;20013;-61
2023/09/27 02:10:22;;;;;;;0.10;0.10;;;;;;;13.68;81.40;100714.13;7365704;19;20697;-60
2023/09/27 02:12:48;;;;;;;0.03;0.03;;;;;;;13.57;81.81;100690.03;7358446;19;20018;-61
2023/09/27 02:15:15;;;;;;;0.10;0.10;;;;;;;13.62;81.66;100693.34;7369916;19;20017;-61
2023/09/27 02:17:42;;;;;;;0.10;0.10;;;;;;;13.59;81.71;100688.22;7369830;19;20003;-61
2023/09/27 02:20:13;;;;;;;0.10;0.10;;;;;;;13.59;81.32;100680.38;7371435;19;20480;-60
2023/09/27 02:22:40;;;;;;;0.10;0.10;;;;;;;13.71;81.61;100698.28;7370801;19;20009;-61
2023/09/27 02:25:15;;;;;;;0.10;0.10;;;;;;;13.72;81.48;100689.50;7361077;19;20096;-61
2023/09/27 02:27:42;;;;;;;0.10;0.10;;;;;;;13.57;81.88;100679.53;7368732;19;20018;-61
2023/09/27 02:30:11;;;;;;;0.10;0.10;;;;;;;13.71;81.81;100700.91;7368310;19;20046;-61
2023/09/27 02:32:41;;;;;;;0.10;0.10;;;;;;;13.68;81.67;100693.13;7369583;19;20010;-61
2023/09/27 02:35:09;;;;;;;0.10;0.10;;;;;;;13.74;81.98;100711.31;7369251;19;20011;-61
2023/09/27 02:37:36;;;;;;;0.10;0.10;;;;;;;13.76;82.06;100695.50;7364921;19;20018;-61
2023/09/27 02:40:05;;;;;;;0.10;0.10;;;;;;;13.75;81.66;100689.41;7372104;19;20482;-61
2023/09/27 02:42:30;;;;;;;0.10;0.10;;;;;;;13.76;81.58;100685.84;7346623;19;20018;-61
2023/09/27 02:44:55;;;;;;;0.10;0.10;;;;;;;13.77;81.15;100686.69;7369066;19;20396;-61
2023/09/27 02:47:21;;;;;;;0.10;0.10;;;;;;;13.78;80.90;100680.53;7366770;19;20026;-61
2023/09/27 02:49:46;;;;;;;0.10;0.10;;;;;;;13.61;81.21;100649.66;7369364;19;20663;-60
2023/09/27 02:52:12;;;;;;;0.10;0.10;;;;;;;13.76;81.16;100664.84;7369159;19;20013;-61
2023/09/27 02:54:38;;;;;;;0.10;0.10;;;;;;;13.77;80.93;100666.56;7370814;19;20011;-60
2023/09/27 02:57:03;;;;;;;0.10;0.10;;;;;;;13.79;81.45;100669.16;7369590;19;21478;-61
2023/09/27 02:59:29;;;;;;;0.10;0.10;;;;;;;13.80;81.20;100667.38;7377521;19;20034;-61
2023/09/27 03:01:55;;;;;;;0.10;0.10;;;;;;;13.80;81.16;100660.34;7358411;19;22223;-60
2023/09/27 03:04:20;;;;;;;0.10;0.10;;;;;;;13.81;81.18;100661.22;7379254;19;20108;-61
2023/09/27 03:06:48;;;;;;;0.10;0.10;;;;;;;13.76;81.65;100643.00;7366938;19;20360;-61
2023/09/27 03:09:15;;;;;;;0.10;0.10;;;;;;;13.71;81.42;100632.66;7360322;19;20035;-61
2023/09/27 03:11:42;;;;;;;0.10;0.10;;;;;;;13.83;81.36;100647.09;7368290;19;20059;-61
2023/09/27 03:14:07;;;;;;;0.10;0.10;;;;;;;13.86;81.19;100654.03;7366963;19;20010;-61
2023/09/27 03:16:33;;;;;;;0.10;0.10;;;;;;;13.80;81.29;100643.75;7367644;19;20018;-61
2023/09/27 03:18:59;;;;;;;0.13;0.13;;;;;;;13.83;81.62;100643.63;7338955;19;20007;-61
2023/09/27 03:21:26;;;;;;;0.10;0.10;;;;;;;13.90;81.23;100639.88;7367094;19;20070;-61
2023/09/27 03:23:53;;;;;;;0.10;0.10;;;;;;;13.75;81.52;100605.41;7371033;19;20092;-60
2023/09/27 03:26:18;;;;;;;0.10;0.10;;;;;;;13.87;81.67;100621.59;7369619;19;20011;-61
2023/09/27 03:28:44;;;;;;;0.10;0.10;;;;;;;13.85;81.55;100600.66;7366066;19;20014;-60
2023/09/27 03:31:09;;;;;;;0.10;0.10;;;;;;;13.95;81.78;100607.28;7361385;19;20010;-61
2023/09/27 03:33:36;;;;;;;0.10;0.10;;;;;;;13.95;81.72;100606.44;7357743;19;20014;-61
2023/09/27 03:36:05;;;;;;;0.10;0.10;;;;;;;14.00;81.16;100607.13;7370229;19;20014;-61
2023/09/27 03:38:32;;;;;;;0.10;0.10;;;;;;;13.99;81.34;100603.63;7373516;19;20011;-61
2023/09/27 03:40:57;;;;;;;0.10;0.10;;;;;;;13.99;81.40;100600.16;7365001;19;20028;-61
2023/09/27 03:43:22;;;;;;;0.10;0.10;;;;;;;14.00;81.43;100594.00;7366078;19;20115;-60
2023/09/27 03:45:48;;;;;;;0.10;0.10;;;;;;;14.04;81.35;100595.59;7368194;19;20031;-60
2023/09/27 03:48:14;;;;;;;0.15;0.15;;;;;;;14.05;81.25;100589.41;7366045;19;20419;-61
2023/09/27 03:50:39;;;;;;;0.10;0.10;;;;;;;14.08;81.45;100584.03;7366378;19;20013;-61
2023/09/27 03:53:04;;;;;;;0.10;0.10;;;;;;;14.10;81.67;100584.84;7369240;19;20042;-60
2023/09/27 03:55:30;;;;;;;0.10;0.10;;;;;;;14.10;81.30;100582.22;7363708;19;20002;-60
2023/09/27 03:57:55;;;;;;;0.10;0.10;;;;;;;14.06;81.29;100572.75;7362465;19;20511;-60
2023/09/27 04:00:21;;;;;;;0.10;0.10;;;;;;;14.13;81.45;100582.06;7363753;19;20017;-60
2023/09/27 04:02:47;;;;;;;0.10;0.10;;;;;;;14.13;81.34;100574.19;7369106;19;20024;-61
2023/09/27 04:05:14;;;;;;;0.10;0.10;;;;;;;14.14;81.29;100567.16;7372358;19;20018;-60
2023/09/27 04:07:40;;;;;;;0.10;0.10;;;;;;;14.13;81.38;100558.44;7370174;19;20035;-60
2023/09/27 04:10:07;;;;;;;0.10;0.10;;;;;;;14.14;81.13;100543.53;7367683;19;20389;-61
2023/09/27 04:12:33;;;;;;;0.10;0.10;;;;;;;14.14;81.20;100540.91;7351980;19;20052;-61
2023/09/27 04:14:59;;;;;;;0.10;0.10;;;;;;;14.11;80.96;100539.28;7364805;19;20478;-60
2023/09/27 04:17:24;;;;;;;0.10;0.10;;;;;;;14.14;81.10;100533.91;7361791;19;20013;-61
2023/09/27 04:19:55;;;;;;;0.10;0.10;;;;;;;14.16;81.00;100537.31;7368248;19;20015;-61
2023/09/27 04:22:20;;;;;;;0.15;0.15;;;;;;;14.14;81.01;100531.28;7365705;19;20026;-60
2023/09/27 04:24:46;;;;;;;0.10;0.10;;;;;;;14.16;80.77;100526.81;7365654;19;20699;-61
2023/09/27 04:27:12;;;;;;;0.10;0.10;;;;;;;14.18;81.26;100513.63;7367196;19;20018;-61
2023/09/27 04:29:37;;;;;;;0.10;0.10;;;;;;;14.18;81.16;100497.84;7365831;19;20013;-60
2023/09/27 04:32:03;;;;;;;0.10;0.10;;;;;;;14.21;81.14;100505.63;7369231;19;20070;-60
2023/09/27 04:34:28;;;;;;;0.10;0.10;;;;;;;14.23;81.27;100495.91;7363828;19;20506;-61
2023/09/27 04:36:54;;;;;;;0.10;0.10;;;;;;;14.23;81.02;100478.38;7370933;19;20507;-60
2023/09/27 04:39:19;;;;;;;0.13;0.13;;;;;;;14.24;81.19;100466.97;7367671;19;20017;-60
2023/09/27 04:41:48;;;;;;;0.10;0.10;;;;;;;14.30;81.18;100465.00;7360625;19;20417;-61
2023/09/27 04:44:14;;;;;;;0.00;0.00;;;;;;;14.33;81.40;100472.72;7368425;19;20471;-61
2023/09/27 04:46:39;;;;;;;0.10;0.10;;;;;;;14.34;81.54;100466.56;7361741;19;20020;-61
2023/09/27 04:49:05;;;;;;;0.10;0.10;;;;;;;14.37;81.36;100479.56;7366370;19;20355;-61
2023/09/27 04:51:31;;;;;;;0.10;0.10;;;;;;;14.38;81.16;100462.88;7361495;19;20014;-61
2023/09/27 04:54:00;;;;;;;0.10;0.10;;;;;;;14.42;81.03;100461.84;7366841;19;20019;-61
2023/09/27 04:56:26;;;;;;;0.10;0.10;;;;;;;14.45;81.16;100448.59;7334459;19;20014;-61
2023/09/27 04:58:52;;;;;;;0.10;0.10;;;;;;;14.47;81.40;100436.22;7355990;19;20014;-60
2023/09/27 05:01:18;;;;;;;0.10;0.10;;;;;;;14.49;81.34;100445.78;7360559;19;20332;-61
2023/09/27 05:03:43;;;;;;;0.10;0.10;;;;;;;14.53;80.95;100436.00;7364295;19;20066;-61
2023/09/27 05:06:08;;;;;;;0.10;0.10;;;;;;;14.54;81.40;100428.03;7365325;19;20042;-61
2023/09/27 05:08:34;;;;;;;0.08;0.08;;;;;;;14.59;81.20;100430.47;7362387;19;20018;-60
2023/09/27 05:10:59;;;;;;;0.10;0.10;;;;;;;14.64;81.26;100438.16;7363753;19;20003;-60
2023/09/27 05:13:25;;;;;;;0.10;0.10;;;;;;;14.66;81.26;100437.19;7365282;19;20018;-61
2023/09/27 05:15:53;;;;;;;0.10;0.10;;;;;;;14.71;80.93;100427.31;7360719;19;20074;-61
2023/09/27 05:18:20;;;;;;;0.10;0.10;;;;;;;14.72;81.00;100394.84;7351348;19;20405;-61
2023/09/27 05:20:45;;;;;;;0.10;0.10;;;;;;;14.69;80.87;100363.44;7366267;19;20106;-61
2023/09/27 05:23:11;;;;;;;0.10;0.10;;;;;;;14.79;81.08;100372.59;7364768;19;20092;-61
2023/09/27 05:25:37;;;;;;;0.10;0.10;;;;;;;14.85;81.45;100370.63;7361148;19;20041;-61
2023/09/27 05:28:03;;;;;;;0.10;0.10;;;;;;;14.89;81.24;100380.09;7361756;19;20474;-61
2023/09/27 05:30:28;;;;;;;0.10;0.10;;;;;;;14.94;81.17;100393.88;7364150;19;20654;-61
2023/09/27 05:32:54;;;;;;;0.10;0.10;;;;;;;14.96;81.32;100381.53;7363978;19;20010;-61
2023/09/27 05:35:20;;;;;;;0.10;0.10;;;;;;;15.00;81.27;100375.19;7361882;19;20019;-61
2023/09/27 05:37:46;;;;;;;0.10;0.10;;;;;;;15.11;81.18;100399.22;7360205;19;20040;-60
2023/09/27 05:40:11;;;;;;;0.10;0.10;;;;;;;15.14;81.27;100393.81;7354696;19;20022;-61
2023/09/27 05:42:38;;;;;;;0.10;0.10;;;;;;;15.19;81.16;100386.56;7365928;19;20023;-60
2023/09/27 05:45:04;;;;;;;0.10;0.10;;;;;;;15.24;81.27;100395.09;7363777;19;20023;-60
2023/09/27 05:47:29;;;;;;;0.10;0.10;;;;;;;15.28;81.36;100393.16;7364226;19;20486;-61
2023/09/27 05:49:55;;;;;;;0.10;0.10;;;;;;;15.20;80.89;100377.72;7370826;19;20459;-61
2023/09/27 05:52:22;;;;;;;0.10;0.10;;;;;;;15.32;81.17;100392.97;7372612;19;20581;-61
2023/09/27 05:54:47;;;;;;;0.10;0.10;;;;;;;15.41;80.81;100396.06;7371946;19;20019;-60
2023/09/27 05:57:14;;;;;;;0.10;0.10;;;;;;;15.40;81.05;100397.84;7367467;19;20812;-61
2023/09/27 05:59:44;;;;;;;0.10;0.10;;;;;;;15.47;80.62;100401.06;7369238;19;20493;-61
2023/09/27 06:02:16;;;;;;;0.10;0.10;;;;;;;15.46;80.95;100396.69;7373235;19;20018;-61
2023/09/27 06:04:42;;;;;;;0.10;0.10;;;;;;;15.54;80.99;100410.34;7369566;19;20021;-61
2023/09/27 06:07:07;;;;;;;0.10;0.10;;;;;;;15.58;81.47;100417.19;7378931;19;20880;-61
2023/09/27 06:09:32;;;;;;;0.10;0.10;;;;;;;15.59;81.07;100408.34;7369438;19;20019;-61
2023/09/27 06:11:58;;;;;;;0.10;0.10;;;;;;;15.61;81.09;100385.44;7361897;19;20014;-61
2023/09/27 06:14:23;;;;;;;0.10;0.10;;;;;;;15.66;81.01;100386.13;7365260;19;20077;-61
2023/09/27 06:16:48;;;;;;;0.08;0.08;;;;;;;15.69;80.62;100371.94;7347787;19;20880;-60
2023/09/27 06:19:14;;;;;;;0.10;0.10;;;;;;;15.71;81.28;100376.22;7372883;19;20093;-61
2023/09/27 06:21:39;;;;;;;0.10;0.10;;;;;;;15.79;81.36;100381.94;7368455;19;20471;-61
2023/09/27 06:24:05;;;;;;;0.10;0.10;;;;;;;15.77;81.43;100370.66;7367093;19;20048;-60
2023/09/27 06:26:30;;;;;;;0.10;0.10;;;;;;;15.83;80.89;100380.88;7370199;19;20003;-61
2023/09/27 06:28:56;;;;;;;0.10;0.10;;;;;;;15.91;81.28;100377.00;7368019;19;20014;-60
2023/09/27 06:31:21;;;;;;;0.10;0.10;;;;;;;15.92;81.01;100362.91;7369060;19;20901;-61
2023/09/27 06:33:47;;;;;;;0.10;0.10;;;;;;;15.94;81.16;100366.31;7364253;19;20014;-60
2023/09/27 06:36:15;;;;;;;0.10;0.10;;;;;;;15.96;81.01;100354.75;7369549;19;20010;-61
2023/09/27 06:38:40;;;;;;;0.10;0.10;;;;;;;16.00;80.99;100339.66;7367483;19;20022;-61
2023/09/27 06:41:07;;;;;;;0.10;0.10;;;;;;;16.04;80.81;100330.69;7366628;19;20108;-61
2023/09/27 06:43:33;;;;;;;0.10;0.10;;;;;;;15.81;80.60;100298.47;7370387;19;20100;-61
2023/09/27 06:46:01;;;;;;;0.10;0.10;;;;;;;16.07;80.37;100326.13;7369288;19;20102;-61
2023/09/27 06:48:27;;;;;;;0.10;0.10;;;;;;;16.08;80.58;100319.06;7363390;19;20023;-61
2023/09/27 06:50:53;;;;;;;0.10;0.10;;;;;;;15.98;80.30;100294.97;7369799;19;20019;-61
2023/09/27 06:53:18;;;;;;;0.10;0.10;;;;;;;16.13;80.36;100317.03;7371516;19;20015;-61
2023/09/27 06:55:44;;;;;;;0.10;0.10;;;;;;;16.06;80.40;100291.94;7370094;19;20023;-60
2023/09/27 06:58:11;;;;;;;0.10;0.10;;;;;;;16.12;80.53;100298.66;7377361;19;20034;-59
2023/09/27 07:00:40;;;;;;;0.10;0.10;;;;;;;16.19;80.71;100303.53;7362853;19;20390;-60
2023/09/27 07:03:06;;;;;;;0.10;0.10;;;;;;;16.14;80.70;100281.84;7364660;19;20014;-60
2023/09/27 07:05:33;;;;;;;0.10;0.10;;;;;;;16.16;80.60;100272.09;7369305;19;20018;-60
2023/09/27 07:07:58;;;;;;;0.10;0.10;;;;;;;16.16;81.04;100266.81;7368204;19;20597;-60
2023/09/27 07:10:24;;;;;;;0.10;0.10;;;;;;;16.16;80.78;100264.19;7370579;19;20482;-60
2023/09/27 07:12:50;;;;;;;0.10;0.10;;;;;;;16.16;80.90;100256.28;7354178;19;20007;-61
2023/09/27 07:15:15;;;;;;;0.10;0.10;;;;;;;16.17;80.73;100257.13;7367399;19;20006;-60
2023/09/27 07:17:43;;;;;;;0.10;0.10;;;;;;;16.20;80.57;100263.09;7364486;19;20016;-61
2023/09/27 07:20:32;;;;;;;0.13;0.13;;;;;;;16.22;80.51;100277.06;7368391;19;20086;-60
2023/09/27 07:22:58;;;;;;;0.10;0.10;;;;;;;16.21;80.38;100262.16;7364576;19;20090;-61
2023/09/27 07:25:24;;;;;;;0.10;0.10;;;;;;;16.21;80.45;100263.94;7369582;19;20766;-61
2023/09/27 07:27:52;;;;;;;0.10;0.10;;;;;;;16.24;80.50;100253.25;7367340;19;20011;-60
2023/09/27 07:30:20;;;;;;;0.10;0.10;;;;;;;16.23;80.35;100241.00;7368822;19;20007;-60
2023/09/27 07:32:46;;;;;;;0.10;0.10;;;;;;;16.25;80.81;100233.88;7367030;19;20010;-60
2023/09/27 07:35:14;;;;;;;0.10;0.10;;;;;;;16.25;80.31;100220.69;7369845;19;20047;-60
2023/09/27 07:37:40;;;;;;;0.10;0.10;;;;;;;16.27;80.33;100203.00;7360357;19;20381;-60
2023/09/27 07:40:09;;;;;;;0.10;0.10;;;;;;;16.28;80.58;100199.47;7357675;19;20034;-61
2023/09/27 07:42:35;;;;;;;0.00;0.00;;;;;;;16.28;80.30;100192.41;7356672;19;20393;-60
2023/09/27 07:45:01;;;;;;;0.10;0.10;;;;;;;16.28;80.59;100202.94;7366669;19;20014;-60
2023/09/27 07:47:26;;;;;;;0.10;0.10;;;;;;;16.26;80.65;100199.53;7367450;19;20039;-60
2023/09/27 07:49:52;;;;;;;0.10;0.10;;;;;;;16.29;80.13;100182.72;7368204;19;20413;-61
2023/09/27 07:52:17;;;;;;;0.10;0.10;;;;;;;16.29;80.50;100194.09;7368614;19;20773;-60
2023/09/27 07:54:45;;;;;;;0.10;0.10;;;;;;;16.29;80.48;100183.56;7367632;19;20040;-60
2023/09/27 07:57:11;;;;;;;0.10;0.10;;;;;;;16.28;80.25;100181.88;7365493;19;20010;-61
2023/09/27 07:59:36;;;;;;;0.10;0.10;;;;;;;16.29;80.08;100178.28;7365310;19;20015;-61
2023/09/27 08:02:02;;;;;;;0.10;0.10;;;;;;;16.26;80.27;100178.44;7360339;19;20084;-61
2023/09/27 08:04:27;;;;;;;0.10;0.10;;;;;;;16.28;80.07;100165.22;7372164;19;20018;-60
2023/09/27 08:06:52;;;;;;;0.10;0.10;;;;;;;16.27;80.69;100169.63;7376861;19;20775;-60
2023/09/27 08:09:21;;;;;;;0.10;0.10;;;;;;;16.26;80.11;100146.84;7372166;19;20011;-60
2023/09/27 08:11:47;;;;;;;0.10;0.10;;;;;;;16.25;80.39;100153.03;7364894;19;20035;-61
2023/09/27 08:14:15;;;;;;;0.10;0.10;;;;;;;16.27;80.29;100148.56;7362284;19;20066;-61
2023/09/27 08:16:41;;;;;;;0.10;0.10;;;;;;;16.18;80.32;100138.53;7362752;19;20010;-60
2023/09/27 08:19:06;;;;;;;0.10;0.10;;;;;;;16.28;80.66;100131.81;7364975;19;20039;-60
2023/09/27 08:21:32;;;;;;;0.10;0.10;;;;;;;16.29;80.62;100130.88;7362225;19;20035;-60
2023/09/27 08:23:57;;;;;;;0.10;0.10;;;;;;;16.27;80.54;100127.47;7364877;19;20537;-60
2023/09/27 08:26:23;;;;;;;0.10;0.10;;;;;;;16.25;80.36;100118.78;7367669;19;20021;-59
2023/09/27 08:28:48;;;;;;;0.10;0.10;;;;;;;16.26;80.50;100103.84;7362868;19;20017;-59
2023/09/27 08:31:13;;;;;;;0.10;0.10;;;;;;;16.11;80.71;100081.81;7362189;19;20014;-60
2023/09/27 08:33:39;;;;;;;0.10;0.10;;;;;;;16.24;80.91;100096.03;7364988;19;20353;-60
2023/09/27 08:36:04;;;;;;;0.03;0.03;;;;;;;16.22;80.90;100076.81;7366851;19;20499;-60
2023/09/27 08:38:30;;;;;;;0.10;0.10;;;;;;;16.22;81.02;100071.56;7359477;19;20018;-60
2023/09/27 08:40:55;;;;;;;0.10;0.10;;;;;;;16.23;80.89;100067.97;7363080;19;20007;-61
2023/09/27 08:43:22;;;;;;;0.10;0.10;;;;;;;16.22;81.04;100058.38;7359521;19;20015;-59
2023/09/27 08:45:51;;;;;;;0.10;0.10;;;;;;;16.22;80.63;100039.94;7362639;19;20014;-59
2023/09/27 08:48:22;;;;;;;0.10;0.10;;;;;;;16.22;80.92;100044.34;7357255;19;20025;-60
2023/09/27 08:50:49;;;;;;;0.10;0.10;;;;;;;16.11;80.84;100015.97;7364724;19;20018;-59
2023/09/27 08:53:15;;;;;;;0.10;0.10;;;;;;;16.13;81.07;99993.06;7360207;19;20038;-60
2023/09/27 08:55:45;;;;;;;0.10;0.10;;;;;;;16.16;80.62;99987.59;7363007;19;20054;-60
2023/09/27 08:58:13;;;;;;;0.10;0.10;;;;;;;16.13;80.64;99977.25;7355372;19;20467;-59
2023/09/27 09:00:41;;;;;;;0.10;0.10;;;;;;;16.04;81.03;99967.22;7370063;19;20031;-59
2023/09/27 09:03:07;;;;;;;0.00;0.00;;;;;;;16.11;81.00;99958.03;7356574;19;20018;-59
2023/09/27 09:05:33;;;;;;;0.10;0.10;;;;;;;16.12;81.12;99946.56;7365228;19;20038;-59
2023/09/27 09:08:01;;;;;;;0.10;0.10;;;;;;;16.10;81.30;99945.81;7365948;19;20006;-59
2023/09/27 09:10:27;;;;;;;;;;;;;;;16.15;80.67;99933.22;7361894;19;20017;-60
2023/09/27 09:12:52;;;;;;;0.10;0.10;;;;;;;15.98;80.75;99899.13;7355963;19;19918;-59
2023/09/27 09:15:39;;;;;;;0.10;0.10;;;;;;;16.02;81.09;99908.53;7364067;19;20015;-59
2023/09/27 09:18:06;;;;;;;0.10;0.10;;;;;;;16.08;81.16;99922.19;7353427;19;20026;-59
2023/09/27 09:20:41;;;;;;;0.10;0.10;;;;;;;16.10;81.22;99930.00;7358950;19;20015;-59
2023/09/27 09:23:12;;;;;;;0.10;0.10;;;;;;;16.10;81.28;99935.25;7358804;19;20018;-59
2023/09/27 09:25:44;;;;;;;0.10;0.10;;;;;;;16.12;81.03;99891.28;7363366;19;20021;-59
2023/09/27 09:28:09;;;;;;;0.10;0.10;;;;;;;16.09;81.29;99867.72;7360817;19;20339;-59
2023/09/27 09:30:36;;;;;;;0.10;0.10;;;;;;;16.11;81.34;99862.38;7356232;19;20009;-59
2023/09/27 09:33:03;;;;;;;0.10;0.10;;;;;;;16.12;81.61;99857.03;7361384;19;20007;-59
2023/09/27 09:35:33;;;;;;;0.10;0.10;;;;;;;16.09;81.74;99844.03;7360969;19;20454;-60
2023/09/27 09:38:00;;;;;;;0.10;0.10;;;;;;;16.00;81.62;99826.13;7361734;19;20028;-59
2023/09/27 09:40:25;;;;;;;0.10;0.10;;;;;;;16.11;81.42;99825.50;7357109;19;20010;-59
2023/09/27 09:42:51;;;;;;;0.10;0.10;;;;;;;16.12;81.84;99806.97;7361691;19;20049;-60
2023/09/27 09:45:16;;;;;;;0.10;0.10;;;;;;;16.13;81.54;99807.81;7359320;19;20029;-59
2023/09/27 09:47:44;;;;;;;0.10;0.10;;;;;;;16.15;81.40;99801.50;7356832;19;20018;-60
2023/09/27 09:50:16;;;;;;;0.10;0.10;;;;;;;16.18;81.54;99801.34;7361008;19;20467;-59
2023/09/27 09:52:50;;;;;;;0.10;0.10;;;;;;;16.18;81.98;99774.16;7359620;19;20112;-60
2023/09/27 09:55:19;;;;;;;0.10;0.10;;;;;;;16.21;81.79;99759.00;7358726;19;20455;-60
2023/09/27 09:57:46;;;;;;;0.10;0.10;;;;;;;16.25;81.48;99755.22;7362344;19;20482;-60
2023/09/27 10:00:17;;;;;;;0.10;0.10;;;;;;;16.24;81.58;99740.38;7355506;19;20007;-60
2023/09/27 10:02:51;;;;;;;0.10;0.10;;;;;;;16.27;81.78;99727.03;7359903;19;20014;-59
2023/09/27 10:05:23;;;;;;;0.10;0.10;;;;;;;16.28;81.62;99728.72;7362130;19;20018;-59
2023/09/27 10:07:50;;;;;;;0.10;0.10;;;;;;;16.29;81.32;99727.75;7361315;19;21813;-59
2023/09/27 10:10:20;;;;;;;0.10;0.10;;;;;;;16.32;81.36;99732.84;7362836;19;20013;-59
2023/09/27 10:12:47;;;;;;;0.00;0.00;;;;;;;16.31;81.57;99744.31;7355244;19;20056;-60
2023/09/27 10:15:17;;;;;;;0.10;0.10;;;;;;;16.32;81.62;99730.22;7354260;19;20010;-59
2023/09/27 10:17:42;;;;;;;0.10;0.10;;;;;;;16.30;81.58;99729.44;7357510;19;22176;-60
2023/09/27 10:20:13;;;;;;;0.10;0.10;;;;;;;16.31;81.29;99731.13;7360802;19;20021;-59
2023/09/27 10:22:43;;;;;;;0.10;0.10;;;;;;;16.28;81.57;99720.81;7356600;19;20018;-59
2023/09/27 10:25:25;;;;;;;0.10;0.10;;;;;;;16.31;81.37;99681.09;7360575;19;20010;-60
2023/09/27 10:28:04;;;;;;;0.10;0.10;;;;;;;16.31;81.60;99660.00;7358485;19;20031;-59
2023/09/27 10:30:41;;;;;;;0.10;0.10;;;;;;;16.31;81.68;99638.94;7360564;19;20795;-59
2023/09/27 10:33:15;;;;;;;;;;;;;;;16.32;81.17;99640.66;7365365;19;20006;-59
2023/09/27 10:35:42;;;;;;;0.10;0.10;;;;;;;16.33;81.06;99626.53;7371446;19;20059;-58
2023/09/27 10:38:11;;;;;;;0.10;0.10;;;;;;;16.32;81.54;99643.28;7368405;19;20034;-59
2023/09/27 10:40:43;;;;;;;0.10;0.10;;;;;;;16.35;81.71;99629.91;7365256;19;20022;-59
2023/09/27 10:43:09;;;;;;;0.10;0.10;;;;;;;16.33;81.61;99615.97;7364020;19;20354;-58
2023/09/27 10:45:34;;;;;;;0.10;0.10;;;;;;;16.30;81.77;99589.81;7368546;19;20475;-59
2023/09/27 10:48:18;;;;;;;0.10;0.10;;;;;;;16.39;81.73;99571.75;7360351;19;20093;-60
2023/09/27 10:50:56;;;;;;;0.10;0.10;;;;;;;16.42;82.10;99558.34;7366650;19;20022;-58
2023/09/27 10:53:22;;;;;;;0.10;0.10;;;;;;;16.40;82.43;99568.16;7365057;19;20439;-59
2023/09/27 10:55:47;;;;;;;0.10;0.10;;;;;;;16.47;82.07;99565.00;7369684;19;20015;-58
2023/09/27 10:58:15;;;;;;;0.10;0.10;;;;;;;16.49;82.25;99555.22;7360370;19;20006;-60
2023/09/27 11:00:49;;;;;;;;;;;;;;;16.56;82.12;99547.75;7369356;19;20016;-59
2023/09/27 11:03:16;;;;;;;0.10;0.10;;;;;;;16.57;82.55;99547.69;7361259;19;19931;-59
2023/09/27 11:05:42;;;;;;;0.10;0.10;;;;;;;16.61;82.63;99537.75;7367028;19;20016;-59
2023/09/27 11:08:07;;;;;;;0.10;0.10;;;;;;;16.61;82.71;99525.41;7359840;19;20618;-59
2023/09/27 11:10:33;;;;;;;0.10;0.10;;;;;;;16.66;82.58;99525.13;7368386;19;20493;-60
2023/09/27 11:13:10;;;;;;;0.10;0.10;;;;;;;16.74;82.92;99519.38;7357709;19;20502;-59
2023/09/27 11:15:36;;;;;;;0.10;0.10;;;;;;;16.73;82.85;99502.72;7370271;19;20018;-60
2023/09/27 11:18:04;;;;;;;0.10;0.10;;;;;;;16.77;82.76;99493.63;7373418;19;20017;-59
2023/09/27 11:20:29;;;;;;;0.10;0.10;;;;;;;16.66;82.88;99459.22;7372053;19;20015;-59
2023/09/27 11:22:59;;;;;;;0.10;0.10;;;;;;;16.85;82.67;99488.69;7368218;19;20052;-59
2023/09/27 11:25:29;;;;;;;0.10;0.10;;;;;;;16.88;82.53;99468.34;7366049;19;20007;-60